createdAt,value
2022-11-26T00:04:52.756Z,7.27
2022-11-26T00:09:55.985Z,7.40
2022-11-26T00:15:00.573Z,7.43
2022-11-26T00:20:03.083Z,8.17
2022-11-26T00:25:06.023Z,8.53
2022-11-26T00:30:25.270Z,8.53
2022-11-26T00:35:27.673Z,8.10
2022-11-26T00:40:33.896Z,9.03
2022-11-26T00:45:36.231Z,8.60
2022-11-26T00:50:41.961Z,9.20
2022-11-26T00:55:47.354Z,8.60
2022-11-26T01:00:50.176Z,8.17
2022-11-26T01:05:58.715Z,8.00
2022-11-26T01:11:02.977Z,7.83
2022-11-26T01:16:20.152Z,8.03
2022-11-26T01:21:24.417Z,8.33
2022-11-26T01:26:32.296Z,7.50
2022-11-26T01:31:34.742Z,8.50
2022-11-26T01:36:40.134Z,6.83
2022-11-26T01:41:54.344Z,7.70
2022-11-26T01:46:57.929Z,7.93
2022-11-26T01:52:21.119Z,8.03
2022-11-26T01:57:28.674Z,7.67
2022-11-26T02:02:31.117Z,8.60
2022-11-26T02:07:34.792Z,8.47
2022-11-26T02:12:38.029Z,8.77
2022-11-26T02:18:01.332Z,9.47
2022-11-26T02:23:28.901Z,9.67
2022-11-26T02:29:10.160Z,9.43
2022-11-26T02:34:23.758Z,10.97
2022-11-26T02:39:28.781Z,10.07
2022-11-26T02:44:44.586Z,11.60
2022-11-26T02:49:49.518Z,11.43
2022-11-26T02:54:53.357Z,11.10
2022-11-26T02:59:56.054Z,11.00
2022-11-26T03:05:01.680Z,10.47
2022-11-26T03:10:04.768Z,11.40
2022-11-26T03:15:08.034Z,12.10
2022-11-26T03:20:10.972Z,11.23
2022-11-26T03:25:13.645Z,11.63
2022-11-26T03:30:16.171Z,11.43
2022-11-26T03:35:18.754Z,10.90
2022-11-26T03:40:21.024Z,12.20
2022-11-26T03:45:23.724Z,12.23
2022-11-26T03:50:26.205Z,12.77
2022-11-26T03:55:28.476Z,12.63
2022-11-26T04:00:30.755Z,12.70
2022-11-26T04:05:33.050Z,12.77
2022-11-26T04:10:35.395Z,12.07
2022-11-26T04:15:37.688Z,13.33
2022-11-26T04:20:39.993Z,11.87
2022-11-26T04:25:42.326Z,12.47
2022-11-26T04:30:44.642Z,12.00
2022-11-26T04:35:47.104Z,13.20
2022-11-26T04:40:49.545Z,12.40
2022-11-26T04:45:52.017Z,11.93
2022-11-26T04:50:54.302Z,12.20
2022-11-26T04:55:56.632Z,13.60
2022-11-26T05:00:58.969Z,13.40
2022-11-26T05:06:01.360Z,12.80
2022-11-26T05:11:03.733Z,12.17
2022-11-26T05:16:06.374Z,11.00
2022-11-26T05:21:08.699Z,13.40
2022-11-26T05:26:11.010Z,13.60
2022-11-26T05:31:13.843Z,13.37
2022-11-26T05:36:16.278Z,13.13
2022-11-26T05:41:18.557Z,13.27
2022-11-26T05:46:21.117Z,13.33
2022-11-26T05:51:23.570Z,12.60
2022-11-26T05:56:25.864Z,12.63
2022-11-26T06:01:28.276Z,11.73
2022-11-26T06:06:30.868Z,11.33
2022-11-26T06:11:33.165Z,11.93
2022-11-26T06:16:35.635Z,12.03
2022-11-26T06:21:38.416Z,12.27
2022-11-26T06:26:41.087Z,11.40
2022-11-26T06:31:43.474Z,11.50
2022-11-26T06:36:45.820Z,11.27
2022-11-26T06:41:48.143Z,10.30
2022-11-26T06:46:50.488Z,8.80
2022-11-26T06:51:53.897Z,8.47
2022-11-26T06:56:56.485Z,7.90
2022-11-26T07:01:58.928Z,7.93
2022-11-26T07:07:01.335Z,8.00
2022-11-26T07:12:04.022Z,8.37
2022-11-26T07:17:06.412Z,7.83
2022-11-26T07:22:08.868Z,7.23
2022-11-26T07:27:11.428Z,6.77
2022-11-26T07:32:13.861Z,8.87
2022-11-26T07:37:17.153Z,6.97
2022-11-26T07:42:19.680Z,6.20
2022-11-26T07:47:22.012Z,6.07
2022-11-26T07:52:24.298Z,5.50
2022-11-26T07:57:26.819Z,4.83
2022-11-26T08:02:29.128Z,4.67
2022-11-26T08:07:31.657Z,4.57
2022-11-26T08:12:34.413Z,4.03
2022-11-26T08:17:36.774Z,4.07
2022-11-26T08:22:39.410Z,3.77
2022-11-26T08:27:42.124Z,4.57
2022-11-26T08:32:44.455Z,4.80
2022-11-26T08:37:46.739Z,4.57
2022-11-26T08:42:49.026Z,3.77
2022-11-26T08:47:51.472Z,4.00
2022-11-26T08:52:53.762Z,5.67
2022-11-26T08:57:56.086Z,5.13
2022-11-26T09:02:58.499Z,5.77
2022-11-26T09:08:00.941Z,6.13
2022-11-26T09:13:03.414Z,5.77
2022-11-26T09:18:05.782Z,5.87
2022-11-26T09:23:08.118Z,6.50
2022-11-26T09:28:10.521Z,5.13
2022-11-26T09:33:12.884Z,6.10
2022-11-26T09:38:15.167Z,5.60
2022-11-26T09:43:33.741Z,5.07
2022-11-26T09:48:38.372Z,4.00
2022-11-26T09:53:45.496Z,5.13
2022-11-26T09:59:02.634Z,4.67
2022-11-26T10:04:08.237Z,4.80
2022-11-26T10:09:42.653Z,4.40
2022-11-26T10:15:03.150Z,4.07
2022-11-26T10:20:27.230Z,4.23
2022-11-26T10:25:34.702Z,3.97
2022-11-26T10:30:37.196Z,4.67
2022-11-26T10:35:44.369Z,4.50
2022-11-26T10:40:46.678Z,5.30
2022-11-26T10:45:56.141Z,4.20
2022-11-26T10:51:04.528Z,4.50
2022-11-26T10:56:14.011Z,4.13
2022-11-26T11:01:16.689Z,4.40
2022-11-26T11:06:18.986Z,3.80
2022-11-26T11:11:27.428Z,3.97
2022-11-26T11:16:46.765Z,4.43
2022-11-26T11:21:50.228Z,22.13
2022-11-26T11:26:56.998Z,8.27
2022-11-26T11:32:02.968Z,5.23
2022-11-26T11:37:15.196Z,4.47
2022-11-26T11:42:29.440Z,3.93
2022-11-26T11:47:44.013Z,4.07
2022-11-26T11:53:05.274Z,4.90
2022-11-26T11:58:44.636Z,4.23
2022-11-26T12:04:09.033Z,4.10
2022-11-26T12:09:25.311Z,3.23
2022-11-26T12:14:48.077Z,3.50
2022-11-26T12:19:57.716Z,3.30
2022-11-26T12:25:25.111Z,3.70
2022-11-26T12:30:46.851Z,3.97
2022-11-26T12:36:02.341Z,4.00
2022-11-26T12:41:22.794Z,4.43
2022-11-26T12:46:43.484Z,4.70
2022-11-26T12:51:51.163Z,3.20
2022-11-26T12:57:20.503Z,3.07
2022-11-26T13:02:29.400Z,3.07
2022-11-26T13:08:06.842Z,2.70
2022-11-26T13:13:35.269Z,2.67
2022-11-26T13:18:46.222Z,2.80
2022-11-26T13:24:04.321Z,41.80
2022-11-26T13:29:27.610Z,10.53
2022-11-26T13:34:42.422Z,3.77
2022-11-26T13:39:56.482Z,3.37
2022-11-26T13:45:20.267Z,4.00
2022-11-26T13:50:43.412Z,2.70
2022-11-26T13:55:59.475Z,2.93
2022-11-26T14:01:31.354Z,3.23
2022-11-26T14:06:34.736Z,3.73
2022-11-26T14:11:46.165Z,3.30
2022-11-26T14:17:08.843Z,2.90
2022-11-26T14:22:20.334Z,3.40
2022-11-26T14:27:36.382Z,2.93
2022-11-26T14:33:06.813Z,3.17
2022-11-26T14:38:24.581Z,2.73
2022-11-26T14:43:27.774Z,2.80
2022-11-26T14:48:30.815Z,3.27
2022-11-26T14:53:35.758Z,2.60
2022-11-26T14:58:49.658Z,3.10
2022-11-26T15:04:01.272Z,3.23
2022-11-26T15:09:17.039Z,3.03
2022-11-26T15:14:29.779Z,2.80
2022-11-26T15:19:36.289Z,3.10
2022-11-26T15:24:39.484Z,3.40
2022-11-26T15:29:49.464Z,2.43
2022-11-26T15:34:52.871Z,2.93
2022-11-26T15:40:10.484Z,2.47
2022-11-26T15:45:17.964Z,2.50
2022-11-26T15:50:27.440Z,2.50
2022-11-26T15:55:34.736Z,3.43
2022-11-26T16:00:41.881Z,4.80
2022-11-26T16:05:55.304Z,7.13
2022-11-26T16:11:04.607Z,13.40
2022-11-26T16:16:16.024Z,14.17
2022-11-26T16:21:24.170Z,10.10
2022-11-26T16:26:27.277Z,9.17
2022-11-26T16:31:29.937Z,7.50
2022-11-26T16:36:33.832Z,5.73
2022-11-26T16:41:36.289Z,6.37
2022-11-26T16:46:41.104Z,6.37
2022-11-26T16:51:43.806Z,4.30
2022-11-26T16:56:49.500Z,4.00
2022-11-26T17:01:54.321Z,4.13
2022-11-26T17:06:56.665Z,3.70
2022-11-26T17:11:58.920Z,3.27
2022-11-26T17:17:02.835Z,3.20
2022-11-26T17:22:06.126Z,3.50
2022-11-26T17:27:14.848Z,4.53
2022-11-26T17:32:19.809Z,3.50
2022-11-26T17:37:30.503Z,3.73
2022-11-26T17:42:36.842Z,3.60
2022-11-26T17:47:41.224Z,4.17
2022-11-26T17:52:44.872Z,4.03
2022-11-26T17:57:47.170Z,4.03
2022-11-26T18:02:49.488Z,3.87
2022-11-26T18:07:52.230Z,4.23
2022-11-26T18:12:55.252Z,4.70
2022-11-26T18:17:58.669Z,5.97
2022-11-26T18:23:03.246Z,6.00
2022-11-26T18:28:05.629Z,4.93
2022-11-26T18:33:09.028Z,4.70
2022-11-26T18:38:11.447Z,7.10
2022-11-26T18:43:13.850Z,5.63
2022-11-26T18:48:16.284Z,4.40
2022-11-26T18:53:18.623Z,4.00
2022-11-26T18:58:21.400Z,3.83
2022-11-26T19:03:24.797Z,4.40
2022-11-26T19:08:27.121Z,4.87
2022-11-26T19:13:29.409Z,4.10
2022-11-26T19:18:31.845Z,3.97
2022-11-26T19:23:34.453Z,4.10
2022-11-26T19:28:36.775Z,4.60
2022-11-26T19:33:40.098Z,4.63
2022-11-26T19:38:43.458Z,5.27
2022-11-26T19:43:45.835Z,5.10
2022-11-26T19:48:50.238Z,4.67
2022-11-26T19:53:54.439Z,5.60
2022-11-26T19:59:01.818Z,4.40
2022-11-26T20:04:06.890Z,4.40
2022-11-26T20:09:12.486Z,18.80
2022-11-26T20:14:15.214Z,21.50
2022-11-26T20:19:18.544Z,7.77
2022-11-26T20:24:20.862Z,5.20
2022-11-26T20:29:23.776Z,5.30
2022-11-26T20:34:26.487Z,5.67
2022-11-26T20:39:29.716Z,5.90
2022-11-26T20:44:32.009Z,6.70
2022-11-26T20:49:37.782Z,4.90
2022-11-26T20:54:43.519Z,4.40
2022-11-26T20:59:46.698Z,4.10
2022-11-26T21:04:49.070Z,5.30
2022-11-26T21:09:52.598Z,3.60
2022-11-26T21:14:55.393Z,3.87
2022-11-26T21:19:57.771Z,4.17
2022-11-26T21:25:00.089Z,4.57
2022-11-26T21:30:02.954Z,4.63
2022-11-26T21:35:05.674Z,4.20
2022-11-26T21:40:08.790Z,4.90
2022-11-26T21:45:11.339Z,5.37
2022-11-26T21:50:13.716Z,4.20
2022-11-26T21:55:16.181Z,4.57
2022-11-26T22:00:18.880Z,4.57
2022-11-26T22:05:21.258Z,5.30
2022-11-26T22:10:24.445Z,5.47
2022-11-26T22:15:26.787Z,5.67
2022-11-26T22:20:29.145Z,5.70
2022-11-26T22:25:34.634Z,5.97
2022-11-26T22:30:37.836Z,6.10
2022-11-26T22:35:40.140Z,5.07
2022-11-26T22:40:42.620Z,6.07
2022-11-26T22:45:44.951Z,5.77
2022-11-26T22:50:52.691Z,5.97
2022-11-26T22:55:57.881Z,6.53
2022-11-26T23:01:07.787Z,6.70
2022-11-26T23:06:11.777Z,6.90
2022-11-26T23:11:20.321Z,7.20
2022-11-26T23:16:24.896Z,7.50
2022-11-26T23:21:30.324Z,7.40
2022-11-26T23:26:34.726Z,7.07
2022-11-26T23:31:39.442Z,7.70
2022-11-26T23:36:42.159Z,7.40
2022-11-26T23:41:44.581Z,7.47
2022-11-26T23:46:46.994Z,7.37
2022-11-26T23:51:49.312Z,8.10
2022-11-26T23:56:51.618Z,7.83
